createdAt,value
2019-05-31T03:17:13.329Z,12.00
2019-05-31T03:19:42.563Z,12.00
2019-05-31T03:22:11.615Z,12.10
2019-05-31T03:24:40.627Z,12.00
2019-05-31T03:27:09.612Z,12.10
2019-05-31T03:29:38.606Z,12.00
2019-05-31T03:32:07.881Z,12.10
2019-05-31T03:34:37.195Z,12.10
2019-05-31T03:37:06.484Z,12.10
2019-05-31T03:39:35.519Z,12.10
2019-05-31T03:42:04.517Z,12.10
2019-05-31T03:44:35.067Z,12.20
2019-05-31T03:47:04.142Z,12.10
2019-05-31T03:49:33.359Z,12.20
2019-05-31T03:52:02.293Z,12.20
2019-05-31T03:54:31.480Z,12.20
2019-05-31T03:57:00.371Z,12.20
2019-05-31T03:59:29.361Z,12.20
2019-05-31T04:01:58.439Z,12.20
2019-05-31T04:04:27.504Z,12.20
2019-05-31T04:06:56.658Z,12.20
2019-05-31T04:09:30.990Z,12.20
2019-05-31T04:11:56.347Z,12.20
2019-05-31T04:14:27.423Z,12.20
2019-05-31T04:16:56.227Z,12.20
2019-05-31T04:19:25.969Z,12.30
2019-05-31T04:21:55.184Z,12.30
2019-05-31T04:24:26.022Z,12.30
2019-05-31T04:26:55.093Z,12.30
2019-05-31T04:29:24.373Z,12.30
2019-05-31T04:31:54.769Z,12.30
2019-05-31T04:34:26.935Z,12.30
2019-05-31T04:36:54.648Z,12.40
2019-05-31T04:39:24.187Z,12.40
2019-05-31T04:41:53.360Z,12.40
2019-05-31T04:44:23.975Z,12.50
2019-05-31T04:47:09.093Z,12.50
2019-05-31T04:49:24.231Z,12.50
2019-05-31T04:51:53.320Z,12.50
2019-05-31T04:54:22.467Z,12.50
2019-05-31T04:56:51.628Z,12.50
2019-05-31T04:59:20.641Z,12.60
2019-05-31T05:01:49.720Z,12.80
2019-05-31T05:04:20.480Z,12.80
2019-05-31T05:06:49.626Z,12.80
2019-05-31T05:09:18.684Z,12.80
2019-05-31T05:11:47.799Z,12.80
2019-05-31T05:14:16.792Z,12.90
2019-05-31T05:16:45.858Z,12.90
2019-05-31T05:19:14.792Z,12.90
2019-05-31T05:21:43.886Z,13.00
2019-05-31T05:24:12.912Z,13.00
2019-05-31T05:26:41.918Z,13.00
2019-05-31T05:29:10.843Z,13.00
2019-05-31T05:31:40.087Z,13.00
2019-05-31T05:34:09.147Z,13.00
2019-05-31T05:36:38.073Z,13.00
2019-05-31T05:39:07.599Z,13.00
2019-05-31T05:41:36.628Z,13.00
2019-05-31T05:44:05.729Z,13.00
2019-05-31T05:46:34.808Z,13.00
2019-05-31T05:49:03.819Z,13.10
2019-05-31T05:51:32.798Z,13.10
2019-05-31T05:54:01.846Z,13.10
2019-05-31T05:56:33.287Z,13.20
2019-05-31T05:59:01.500Z,13.20
2019-05-31T06:01:31.577Z,13.20
2019-05-31T06:04:00.578Z,13.30
2019-05-31T06:06:30.292Z,13.30
2019-05-31T06:08:59.459Z,13.30
2019-05-31T06:11:28.860Z,13.30
2019-05-31T06:13:57.976Z,13.30
2019-05-31T06:16:33.689Z,13.30
2019-05-31T06:18:57.647Z,13.30
2019-05-31T06:21:26.688Z,13.30
2019-05-31T06:23:55.629Z,13.30
2019-05-31T06:26:25.149Z,13.30
2019-05-31T06:28:54.287Z,13.40
2019-05-31T06:31:24.613Z,13.40
2019-05-31T06:33:53.772Z,13.40
2019-05-31T06:36:22.840Z,13.50
2019-05-31T06:38:51.875Z,13.50
2019-05-31T06:41:20.908Z,13.60
2019-05-31T06:43:51.453Z,13.70
2019-05-31T06:46:20.712Z,13.70
2019-05-31T06:48:49.819Z,13.70
2019-05-31T06:51:18.954Z,13.80
2019-05-31T06:53:47.883Z,13.80
2019-05-31T06:56:17.052Z,13.90
2019-05-31T06:58:46.155Z,13.90
2019-05-31T07:01:15.154Z,14.00
2019-05-31T07:03:44.375Z,14.10
2019-05-31T07:06:13.375Z,14.20
2019-05-31T07:08:42.464Z,14.20
2019-05-31T07:11:11.557Z,14.30
2019-05-31T07:13:40.572Z,14.40
2019-05-31T07:16:09.559Z,14.60
2019-05-31T07:18:45.548Z,14.70
2019-05-31T07:21:09.408Z,15.00
2019-05-31T07:23:42.597Z,15.10
2019-05-31T07:26:09.239Z,15.20
2019-05-31T07:28:39.418Z,15.50
2019-05-31T07:31:08.568Z,15.60
2019-05-31T07:33:38.214Z,15.70
2019-05-31T07:36:07.478Z,15.80
2019-05-31T07:38:36.630Z,15.80
2019-05-31T07:41:06.454Z,15.80
2019-05-31T07:43:35.480Z,15.90
2019-05-31T07:46:04.677Z,16.00
2019-05-31T07:48:34.166Z,16.30
2019-05-31T07:51:03.298Z,16.50
2019-05-31T07:53:32.647Z,16.60
2019-05-31T07:56:01.682Z,17.00
2019-05-31T07:58:31.213Z,17.40
2019-05-31T08:01:00.350Z,17.60
2019-05-31T08:03:29.345Z,17.50
2019-05-31T08:05:59.707Z,17.40
2019-05-31T08:08:29.462Z,17.40
2019-05-31T08:11:02.989Z,17.50
2019-05-31T08:13:29.533Z,17.30
2019-05-31T08:15:58.619Z,17.50
2019-05-31T08:18:28.049Z,17.40
2019-05-31T08:20:57.183Z,17.40
2019-05-31T08:23:27.277Z,17.60
2019-05-31T08:25:56.935Z,17.70
2019-05-31T08:28:26.003Z,17.60
2019-05-31T08:30:55.011Z,17.80
2019-05-31T08:33:24.022Z,18.00
2019-05-31T08:35:53.105Z,18.20
2019-05-31T08:38:22.215Z,18.30
2019-05-31T08:40:51.215Z,18.30
2019-05-31T08:43:20.299Z,18.40
2019-05-31T08:45:49.439Z,18.60
2019-05-31T08:48:18.381Z,18.60
2019-05-31T08:50:47.531Z,18.70
2019-05-31T08:53:16.573Z,18.60
2019-05-31T08:55:45.713Z,18.80
2019-05-31T08:58:14.804Z,18.80
2019-05-31T09:00:43.984Z,19.00
2019-05-31T09:03:12.987Z,19.10
2019-05-31T09:05:42.079Z,19.40
2019-05-31T09:08:11.074Z,19.30
2019-05-31T09:10:41.578Z,19.20
2019-05-31T09:13:10.859Z,19.30
2019-05-31T09:15:39.957Z,19.40
2019-05-31T09:18:09.061Z,19.70
2019-05-31T09:20:39.699Z,19.80
2019-05-31T09:23:09.026Z,19.80
2019-05-31T09:25:39.223Z,19.70
2019-05-31T09:28:08.531Z,19.30
2019-05-31T09:30:38.512Z,18.80
2019-05-31T09:33:07.620Z,18.60
2019-05-31T09:35:38.003Z,18.40
2019-05-31T09:38:07.271Z,19.30
2019-05-31T09:40:37.191Z,20.10
2019-05-31T09:43:19.246Z,20.60
2019-05-31T09:45:38.308Z,19.80
2019-05-31T09:48:07.997Z,19.50
2019-05-31T09:50:37.552Z,19.30
2019-05-31T09:53:06.707Z,18.90
2019-05-31T09:55:35.799Z,18.40
2019-05-31T09:58:04.932Z,18.10
2019-05-31T10:00:35.572Z,17.90
2019-05-31T10:03:04.844Z,17.70
2019-05-31T10:05:34.550Z,17.50
2019-05-31T10:08:09.900Z,17.40
2019-05-31T10:10:35.698Z,17.30
2019-05-31T10:13:05.402Z,17.10
2019-05-31T10:15:35.232Z,17.10
2019-05-31T10:18:05.277Z,17.00
2019-05-31T10:20:36.139Z,17.00
2019-05-31T10:23:05.370Z,16.90
2019-05-31T10:25:36.146Z,16.80
2019-05-31T10:28:05.251Z,16.90
2019-05-31T10:30:35.729Z,16.80
2019-05-31T10:33:04.915Z,16.80
2019-05-31T10:35:35.443Z,16.80
2019-05-31T10:38:04.933Z,16.70
2019-05-31T10:40:34.110Z,16.70
2019-05-31T10:43:03.191Z,16.70
2019-05-31T10:45:32.272Z,16.80
2019-05-31T10:48:01.250Z,16.90
2019-05-31T10:50:45.858Z,17.20
2019-05-31T10:53:01.093Z,17.30
2019-05-31T10:55:30.363Z,17.50
2019-05-31T10:57:59.526Z,17.70
2019-05-31T11:00:28.960Z,17.80
2019-05-31T11:02:57.944Z,18.00
2019-05-31T11:05:27.012Z,17.80
2019-05-31T11:07:55.998Z,17.70
2019-05-31T11:10:25.007Z,17.70
2019-05-31T11:12:53.993Z,17.70
2019-05-31T11:15:23.098Z,17.90
2019-05-31T11:17:52.843Z,18.00
2019-05-31T11:20:22.290Z,18.20
2019-05-31T11:22:51.258Z,18.40
2019-05-31T11:25:20.415Z,18.70
2019-05-31T11:27:49.535Z,18.90
2019-05-31T11:30:20.362Z,19.10
2019-05-31T11:32:53.028Z,19.40
2019-05-31T11:35:20.339Z,20.70
2019-05-31T11:37:49.701Z,21.40
2019-05-31T11:40:19.276Z,21.20
2019-05-31T11:43:09.205Z,21.10
2019-05-31T11:45:19.836Z,20.60
2019-05-31T11:47:51.375Z,21.20
2019-05-31T11:50:20.028Z,23.30
2019-05-31T11:52:49.054Z,24.90
2019-05-31T11:55:23.293Z,24.30
2019-05-31T11:57:48.859Z,24.20
2019-05-31T12:00:19.742Z,23.30
2019-05-31T12:02:57.927Z,22.50
2019-05-31T12:05:19.863Z,22.30
2019-05-31T12:07:49.050Z,22.30
2019-05-31T12:10:19.204Z,21.80
2019-05-31T12:12:56.615Z,21.50
2019-05-31T12:15:19.140Z,21.00
2019-05-31T12:17:48.774Z,20.80
2019-05-31T12:20:19.213Z,20.70
2019-05-31T12:22:48.880Z,20.70
2019-05-31T12:25:18.772Z,20.50
2019-05-31T12:27:49.143Z,20.30
2019-05-31T12:30:22.773Z,20.30
2019-05-31T12:32:50.333Z,20.20
2019-05-31T12:35:19.580Z,20.30
2019-05-31T12:37:49.202Z,20.20
2019-05-31T12:40:19.028Z,20.10
2019-05-31T12:42:48.875Z,20.00
2019-05-31T12:45:19.095Z,20.00
2019-05-31T12:47:53.200Z,19.90
2019-05-31T12:50:24.947Z,19.90
2019-05-31T12:52:49.843Z,20.00
2019-05-31T12:55:19.095Z,20.00
2019-05-31T12:57:49.817Z,20.20
2019-05-31T13:00:19.798Z,20.10
2019-05-31T13:02:54.138Z,20.10
2019-05-31T13:05:21.015Z,20.10
2019-05-31T13:07:50.198Z,20.00
2019-05-31T13:10:19.714Z,19.90
2019-05-31T13:12:48.890Z,19.80
2019-05-31T13:15:18.643Z,19.80
2019-05-31T13:17:48.785Z,19.60
2019-05-31T13:20:18.664Z,19.40
2019-05-31T13:22:47.821Z,19.50
2019-05-31T13:25:17.193Z,19.40
2019-05-31T13:27:47.782Z,19.60
2019-05-31T13:30:17.226Z,19.50
2019-05-31T13:32:47.726Z,19.50
2019-05-31T13:35:17.089Z,19.50
2019-05-31T13:37:47.307Z,19.60
2019-05-31T13:40:16.578Z,19.60
2019-05-31T13:42:45.671Z,19.60
2019-05-31T13:45:15.081Z,19.60
2019-05-31T13:47:45.628Z,19.60
2019-05-31T13:50:15.250Z,19.70
2019-05-31T13:52:44.403Z,19.80
2019-05-31T13:55:13.846Z,19.80
2019-05-31T13:57:42.880Z,19.70
2019-05-31T14:00:12.599Z,19.80
2019-05-31T14:02:41.695Z,19.90
2019-05-31T14:05:12.413Z,19.90
2019-05-31T14:07:41.471Z,19.80
2019-05-31T14:10:11.175Z,19.70
2019-05-31T14:12:40.259Z,19.70
2019-05-31T14:15:10.127Z,20.00
2019-05-31T14:17:39.252Z,20.20
2019-05-31T14:20:09.396Z,20.20
2019-05-31T14:22:38.576Z,20.10
2019-05-31T14:25:08.605Z,20.10
2019-05-31T14:27:37.810Z,20.20
2019-05-31T14:30:06.990Z,20.40
2019-05-31T14:32:36.115Z,20.60
2019-05-31T14:35:06.114Z,20.80
2019-05-31T14:37:35.212Z,20.90
2019-05-31T14:40:05.440Z,21.10
2019-05-31T14:42:34.545Z,21.60
2019-05-31T14:45:07.909Z,22.20
2019-05-31T14:47:34.782Z,23.50
2019-05-31T14:50:04.113Z,23.60
2019-05-31T14:52:33.124Z,23.40
2019-05-31T14:55:03.350Z,22.70
2019-05-31T14:57:32.704Z,23.00
2019-05-31T15:00:02.412Z,23.90
2019-05-31T15:02:31.704Z,24.10
2019-05-31T15:05:05.094Z,23.90
2019-05-31T15:07:32.970Z,23.80
2019-05-31T15:10:02.242Z,23.80
2019-05-31T15:12:34.261Z,23.50
2019-05-31T15:15:03.366Z,23.30
2019-05-31T15:17:32.502Z,22.90
2019-05-31T15:20:02.179Z,22.80
2019-05-31T15:22:32.224Z,22.70
2019-05-31T15:25:01.290Z,22.60
2019-05-31T15:27:30.467Z,22.40
2019-05-31T15:29:59.473Z,22.20
2019-05-31T15:32:53.321Z,22.00
2019-05-31T15:35:46.909Z,21.90
2019-05-31T15:38:16.039Z,21.70
2019-05-31T15:40:47.796Z,21.60
2019-05-31T15:43:16.962Z,21.50
2019-05-31T15:45:46.204Z,21.50
2019-05-31T15:48:15.208Z,21.20
2019-05-31T15:50:44.238Z,21.00
2019-05-31T15:53:32.529Z,21.00
2019-05-31T15:55:50.343Z,20.90
2019-05-31T15:58:15.916Z,20.70
2019-05-31T16:00:44.984Z,20.50
2019-05-31T16:03:14.123Z,20.50
2019-05-31T16:05:43.195Z,20.50
2019-05-31T16:08:12.287Z,20.50
2019-05-31T16:10:41.276Z,20.40
2019-05-31T16:13:10.284Z,20.50
2019-05-31T16:15:39.367Z,20.70
2019-05-31T16:18:08.388Z,20.60
2019-05-31T16:20:37.385Z,20.50
2019-05-31T16:23:09.578Z,20.50
2019-05-31T16:25:37.362Z,20.50
2019-05-31T16:28:06.502Z,20.50
2019-05-31T16:30:35.565Z,20.70
2019-05-31T16:33:04.685Z,20.50
2019-05-31T16:35:33.675Z,20.40
2019-05-31T16:38:02.712Z,20.20
2019-05-31T16:40:34.335Z,20.30
2019-05-31T16:43:03.799Z,20.30
2019-05-31T16:45:33.012Z,20.20
2019-05-31T16:48:02.244Z,20.20
2019-05-31T16:50:35.271Z,20.30
2019-05-31T16:53:05.510Z,20.30
2019-05-31T16:55:35.045Z,20.50
2019-05-31T16:58:04.297Z,20.40
2019-05-31T17:00:33.218Z,20.40
2019-05-31T17:03:07.762Z,20.40
2019-05-31T17:05:32.979Z,20.30
2019-05-31T17:08:03.458Z,20.30
2019-05-31T17:10:32.703Z,20.20
2019-05-31T17:13:01.779Z,20.10
2019-05-31T17:15:31.202Z,20.10
2019-05-31T17:18:00.257Z,19.90
2019-05-31T17:20:29.247Z,19.80
2019-05-31T17:22:58.326Z,19.90
2019-05-31T17:25:27.387Z,19.80
2019-05-31T17:27:56.326Z,19.80
2019-05-31T17:30:36.522Z,19.70
2019-05-31T17:33:07.654Z,19.70
2019-05-31T17:35:37.586Z,19.50
2019-05-31T17:38:08.276Z,19.40
2019-05-31T17:40:37.762Z,19.30
2019-05-31T17:43:08.041Z,19.20
2019-05-31T17:45:37.398Z,19.10
2019-05-31T17:48:06.448Z,19.10
2019-05-31T17:50:35.569Z,19.00
2019-05-31T17:53:06.030Z,18.80
2019-05-31T17:55:35.313Z,18.60
2019-05-31T17:58:05.253Z,18.50
2019-05-31T18:00:36.640Z,18.40
2019-05-31T18:03:07.393Z,18.20
2019-05-31T18:05:36.795Z,18.10
2019-05-31T18:08:07.546Z,18.10
2019-05-31T18:10:44.025Z,17.90
2019-05-31T18:13:15.457Z,17.90
2019-05-31T18:15:44.942Z,17.70
2019-05-31T18:18:15.330Z,17.60
2019-05-31T18:20:44.595Z,17.50
2019-05-31T18:23:13.804Z,17.40
2019-05-31T18:25:42.798Z,17.30
2019-05-31T18:28:12.352Z,17.20
2019-05-31T18:30:46.753Z,17.10
2019-05-31T18:33:13.003Z,17.00
2019-05-31T18:35:42.856Z,17.00
2019-05-31T18:38:12.097Z,16.90
2019-05-31T18:40:41.259Z,16.80
2019-05-31T18:43:14.144Z,16.70
2019-05-31T18:45:43.490Z,16.60
2019-05-31T18:48:12.729Z,16.50
2019-05-31T18:50:41.972Z,16.30
2019-05-31T18:53:12.020Z,16.30
2019-05-31T18:55:43.961Z,16.10
2019-05-31T18:58:13.876Z,16.10
2019-05-31T19:00:44.586Z,16.00
2019-05-31T19:03:14.934Z,15.80
2019-05-31T19:05:44.635Z,15.80
2019-05-31T19:08:15.118Z,15.70
2019-05-31T19:10:44.543Z,15.60
2019-05-31T19:13:15.258Z,15.50
2019-05-31T19:15:45.111Z,15.40
2019-05-31T19:18:15.542Z,15.40
2019-05-31T19:20:59.503Z,15.30
2019-05-31T19:23:15.623Z,15.30
2019-05-31T19:25:50.157Z,15.30
2019-05-31T19:28:15.761Z,15.30
2019-05-31T19:30:46.467Z,15.40
2019-05-31T19:33:16.497Z,15.50
2019-05-31T19:35:46.551Z,15.60
2019-05-31T19:38:16.120Z,15.70
2019-05-31T19:40:45.221Z,15.70
2019-05-31T19:43:14.955Z,15.70
2019-05-31T19:45:44.210Z,15.60
2019-05-31T19:48:13.352Z,15.40
2019-05-31T19:50:42.503Z,15.30
2019-05-31T19:53:11.605Z,15.10
2019-05-31T19:55:40.762Z,15.00
2019-05-31T19:58:09.813Z,14.90
2019-05-31T20:00:38.848Z,14.80
2019-05-31T20:03:07.910Z,14.80
2019-05-31T20:05:37.088Z,14.70
2019-05-31T20:08:06.184Z,14.80
2019-05-31T20:10:35.342Z,14.70
2019-05-31T20:13:04.609Z,14.60
2019-05-31T20:15:33.680Z,14.50
2019-05-31T20:18:02.700Z,14.50
2019-05-31T20:20:31.770Z,14.40
2019-05-31T20:23:01.073Z,14.40
2019-05-31T20:25:34.752Z,14.30
2019-05-31T20:28:00.975Z,14.30
2019-05-31T20:33:00.760Z,14.20
2019-05-31T20:35:42.622Z,14.20
2019-05-31T20:38:00.611Z,14.20
2019-05-31T20:39:15.102Z,14.30
2019-05-31T20:40:32.178Z,14.20
2019-05-31T20:45:29.613Z,14.00
2019-05-31T20:47:58.661Z,14.00
2019-05-31T20:50:27.793Z,14.00
2019-05-31T20:52:56.893Z,13.90
2019-05-31T20:55:27.941Z,14.00
2019-05-31T20:57:57.564Z,14.00
2019-05-31T21:00:26.845Z,14.10
2019-05-31T21:02:55.873Z,14.10
2019-05-31T21:05:25.004Z,14.00
2019-05-31T21:07:54.047Z,13.90
2019-05-31T21:10:23.326Z,13.80
2019-05-31T21:12:52.419Z,13.80
2019-05-31T21:15:21.774Z,13.80
2019-05-31T21:17:51.080Z,13.70
2019-05-31T21:20:20.298Z,13.60
2019-05-31T21:22:49.291Z,13.80
2019-05-31T21:25:18.437Z,13.90
2019-05-31T21:27:47.556Z,13.80
2019-05-31T21:30:19.797Z,13.80
2019-05-31T21:32:47.723Z,13.60
2019-05-31T21:35:16.910Z,13.50
2019-05-31T21:37:45.922Z,13.50
2019-05-31T21:40:15.286Z,13.50
2019-05-31T21:42:44.201Z,13.40
2019-05-31T21:45:16.942Z,13.40
2019-05-31T21:47:45.289Z,13.30
2019-05-31T21:50:14.321Z,13.30
2019-05-31T21:52:43.342Z,13.20
2019-05-31T21:55:12.534Z,13.20
2019-05-31T21:57:41.550Z,13.20
2019-05-31T22:00:12.817Z,13.20
2019-05-31T22:02:41.973Z,13.10
2019-05-31T22:05:11.310Z,13.10
2019-05-31T22:07:40.444Z,13.10
2019-05-31T22:10:09.742Z,13.00
2019-05-31T22:12:38.842Z,13.00
2019-05-31T22:15:07.992Z,12.90
2019-05-31T22:17:38.234Z,12.90
2019-05-31T22:20:08.569Z,12.90
2019-05-31T22:22:38.857Z,12.90
2019-05-31T22:25:08.384Z,12.80
2019-05-31T22:27:37.452Z,12.80
